This is the latest recevied weather packets stored in our database for station/object TONGUE. If no packets are shown the sender has not sent any weather packets the latest 10 day(s).
| Time | Temp. | Humidity | Pressure | Rain* | Wind** | Luminosity | Snow |
|---|---|---|---|---|---|---|---|
| 1777338003 | 11.11° C | 94% | 0 hPa | - | - | - | - |
| 1777337403 | 10.56° C | 93% | 0 hPa | - | - | - | - |
| 1777336808 | 11.11° C | 90% | 0 hPa | - | - | - | - |
| 1777336203 | 11.67° C | 88% | 0 hPa | - | - | - | - |
| 1777335603 | 11.11° C | 86% | 0 hPa | - | - | - | - |
| 1777335003 | 11.67° C | 89% | 0 hPa | - | - | - | - |
| 1777334404 | 11.11° C | 96% | 0 hPa | - | - | - | - |
| 1777333803 | 10.56° C | 99% | 0 hPa | - | - | - | - |
| 1777333203 | 10.56° C | 100% | 0 hPa | - | - | - | - |
| 1777332603 | 10.56° C | 98% | 0 hPa | - | - | - | - |
| 1777332003 | 10.56° C | 96% | 0 hPa | - | - | - | - |
| 1777331403 | 10.56° C | 91% | 0 hPa | - | - | - | - |
| 1777330804 | 11.11° C | 89% | 0 hPa | - | - | - | - |
| 1777330203 | 11.11° C | 90% | 0 hPa | - | - | - | - |
| 1777329602 | 11.11° C | 90% | 0 hPa | - | - | - | - |
| 1777329003 | 11.11° C | 94% | 0 hPa | - | - | - | - |
| 1777328403 | 12.22° C | 84% | 0 hPa | - | - | - | - |
| 1777327803 | 12.22° C | 83% | 0 hPa | - | - | - | - |
| 1777327204 | 12.22° C | 81% | 0 hPa | - | - | - | - |
| 1777326603 | 11.67° C | 86% | 0 hPa | - | - | - | - |
| 1777326003 | 11.67° C | 90% | 0 hPa | - | - | - | - |
| 1777325403 | 11.67° C | 88% | 0 hPa | - | - | - | - |
| 1777324803 | 12.22° C | 85% | 0 hPa | - | - | - | - |
| 1777324203 | 11.67° C | 93% | 0 hPa | - | - | - | - |
| 1777323603 | 11.11° C | 96% | 0 hPa | - | - | - | - |
* Rain since midnight (hover to see other rain measurements)
** Current wind speed in m/s (hover to see current wind gust speed)